Time;durP1;ratioP1;P1;durP2;ratioP2;P2;SDS_P1;SDS_P2;PMS_P1;PMS_P2;Temp;Humidity;BMP_temperature;BMP_pressure;BME280_temperature;BME280_humidity;BME280_pressure;Samples;Min_cycle;Max_cycle;Signal;HPM_P1;HPM_P2
2021/06/19 00:00:16;;;;;;;25.20;6.10;;;;;;;18.09;nan;96505.06;3516658;40;20839;-74
2021/06/19 00:02:45;;;;;;;29.10;6.30;;;;;;;18.28;nan;96504.84;3519301;40;20451;-74
2021/06/19 00:05:14;;;;;;;15.67;5.30;;;;;;;17.89;nan;96507.88;3517361;40;20785;-74
2021/06/19 00:07:42;;;;;;;19.13;6.73;;;;;;;17.92;nan;96520.00;3520990;40;20572;-74
2021/06/19 00:10:13;;;;;;;23.47;6.10;;;;;;;17.93;nan;96526.94;3519700;40;20541;-74
2021/06/19 00:12:45;;;;;;;29.90;6.40;;;;;;;18.01;nan;96544.72;3517493;40;20464;-73
2021/06/19 00:15:16;;;;;;;20.57;7.40;;;;;;;17.70;nan;96598.91;3520132;40;20514;-73
2021/06/19 00:17:45;;;;;;;26.27;5.60;;;;;;;17.43;nan;96643.94;3520968;40;20539;-73
2021/06/19 00:20:17;;;;;;;20.43;6.10;;;;;;;17.57;nan;96670.75;3517325;40;20479;-72
2021/06/19 00:22:46;;;;;;;18.53;6.77;;;;;;;17.98;nan;96673.06;3517036;40;20478;-71
2021/06/19 00:25:16;;;;;;;31.77;8.70;;;;;;;18.15;nan;96676.69;3519212;40;20962;-71
2021/06/19 00:27:47;;;;;;;21.00;8.33;;;;;;;18.22;nan;96683.03;3523921;40;20447;-74
2021/06/19 00:30:17;;;;;;;35.97;9.10;;;;;;;18.37;nan;96668.28;3521686;40;20840;-75
2021/06/19 00:32:46;;;;;;;25.23;8.00;;;;;;;18.53;nan;96664.09;3519491;40;20466;-75
2021/06/19 00:35:15;;;;;;;19.90;6.23;;;;;;;18.70;nan;96655.28;3520604;40;20489;-74
2021/06/19 00:37:43;;;;;;;33.13;7.20;;;;;;;18.78;nan;96651.88;3520529;40;20851;-74
2021/06/19 00:40:13;;;;;;;19.33;5.97;;;;;;;18.72;nan;96645.34;3521018;40;20476;-75
2021/06/19 00:42:49;;;;;;;18.53;7.50;;;;;;;18.59;nan;96650.22;3521518;40;20497;-75
2021/06/19 00:45:20;;;;;;;25.37;8.73;;;;;;;18.55;nan;96646.22;3518197;40;20851;-75
2021/06/19 00:47:48;;;;;;;15.73;6.30;;;;;;;18.61;nan;96632.34;3521985;40;20449;-74
2021/06/19 00:50:18;;;;;;;31.13;7.27;;;;;;;18.66;nan;96619.47;3518980;40;20564;-74
2021/06/19 00:52:47;;;;;;;26.07;7.63;;;;;;;18.71;nan;96595.94;3521865;40;20752;-74
2021/06/19 00:55:15;;;;;;;31.50;9.40;;;;;;;18.85;nan;96564.56;3522923;40;20915;-75
2021/06/19 00:57:45;;;;;;;37.50;10.77;;;;;;;18.76;nan;96551.22;3524226;40;20786;-73
2021/06/19 01:00:14;;;;;;;26.77;7.80;;;;;;;18.51;nan;96539.63;3526800;40;20494;-73
2021/06/19 01:02:43;;;;;;;19.17;8.90;;;;;;;18.69;nan;96541.41;3529323;40;20539;-73
2021/06/19 01:05:13;;;;;;;21.83;8.03;;;;;;;18.67;nan;96524.81;3530803;40;20481;-73
2021/06/19 01:07:41;;;;;;;26.17;8.10;;;;;;;18.78;nan;96524.53;3529537;40;20876;-75
2021/06/19 01:10:10;;;;;;;26.33;8.30;;;;;;;18.27;nan;96526.22;3519760;40;20827;-73
2021/06/19 01:12:41;;;;;;;28.80;8.30;;;;;;;18.41;nan;96536.25;3532977;40;21072;-75
2021/06/19 01:15:10;;;;;;;16.70;7.47;;;;;;;18.59;nan;96530.91;3520265;40;20458;-75
2021/06/19 01:17:38;;;;;;;19.20;7.77;;;;;;;18.63;nan;96532.25;3530967;40;20784;-72
2021/06/19 01:20:09;;;;;;;28.37;8.50;;;;;;;18.76;nan;96535.31;3538104;40;21137;-75
2021/06/19 01:22:39;;;;;;;27.77;7.63;;;;;;;18.51;nan;96518.41;3526325;40;20488;-73
2021/06/19 01:25:11;;;;;;;23.53;7.80;;;;;;;18.65;nan;96524.97;3531065;40;20551;-73
2021/06/19 01:27:39;;;;;;;20.43;7.03;;;;;;;18.75;nan;96514.25;3525366;40;20484;-73
2021/06/19 01:30:09;;;;;;;22.13;7.37;;;;;;;18.57;nan;96525.75;3529649;40;20500;-74
2021/06/19 01:32:40;;;;;;;21.23;8.40;;;;;;;18.33;nan;96536.22;3533493;40;20441;-74
2021/06/19 01:35:10;;;;;;;24.13;8.70;;;;;;;18.47;nan;96534.81;3529973;40;20719;-73
2021/06/19 01:37:44;;;;;;;21.43;8.23;;;;;;;18.73;nan;96526.81;3516340;40;20853;-74
2021/06/19 01:40:14;;;;;;;24.10;7.77;;;;;;;18.69;nan;96491.00;3529036;40;20864;-72
2021/06/19 01:42:45;;;;;;;23.03;7.50;;;;;;;19.00;nan;96525.81;3531136;40;20870;-73
2021/06/19 01:45:16;;;;;;;22.43;7.50;;;;;;;18.87;nan;96538.69;3529332;40;20463;-73
2021/06/19 01:47:45;;;;;;;24.40;8.47;;;;;;;18.75;nan;96525.66;3529559;40;20795;-75
2021/06/19 01:50:17;;;;;;;23.93;7.77;;;;;;;18.69;nan;96526.31;3528979;40;20536;-75
2021/06/19 01:52:46;;;;;;;26.30;7.37;;;;;;;18.63;nan;96526.13;3517275;40;20795;-73
2021/06/19 01:55:15;;;;;;;19.00;7.70;;;;;;;18.72;nan;96525.19;3527980;40;20775;-74
2021/06/19 01:57:44;;;;;;;28.40;7.90;;;;;;;18.83;nan;96522.25;3529863;40;20813;-74
2021/06/19 02:00:14;;;;;;;19.60;8.80;;;;;;;18.81;nan;96508.31;3531968;40;20483;-74
2021/06/19 02:03:08;;;;;;;27.53;8.90;;;;;;;18.80;nan;96500.53;3529435;40;20848;-73
2021/06/19 02:05:36;;;;;;;22.73;7.77;;;;;;;18.85;nan;96493.75;3530883;40;20462;-75
2021/06/19 02:08:06;;;;;;;17.30;8.00;;;;;;;19.04;nan;96503.28;3528033;40;20571;-73
2021/06/19 02:10:39;;;;;;;21.43;7.43;;;;;;;18.94;nan;96497.28;3528685;40;20757;-72
2021/06/19 02:13:08;;;;;;;33.93;9.97;;;;;;;18.77;nan;96502.47;3529954;40;20967;-73
2021/06/19 02:15:38;;;;;;;24.90;8.63;;;;;;;18.98;nan;96503.94;3524795;40;20548;-73
2021/06/19 02:18:07;;;;;;;26.00;8.23;;;;;;;18.92;nan;96502.75;3530485;40;20903;-72
2021/06/19 02:20:35;;;;;;;23.57;8.83;;;;;;;18.94;nan;96482.19;3531209;40;20849;-75
2021/06/19 02:23:04;;;;;;;19.30;8.57;;;;;;;18.98;nan;96481.88;3529702;40;20489;-74
2021/06/19 02:25:33;;;;;;;20.23;7.40;;;;;;;18.83;nan;96485.13;3518932;40;20845;-75
2021/06/19 02:28:05;;;;;;;23.13;9.13;;;;;;;18.61;nan;96496.28;3522880;40;20583;-74
2021/06/19 02:30:36;;;;;;;29.23;9.03;;;;;;;18.82;nan;96483.47;3525436;40;20493;-74
2021/06/19 02:33:05;;;;;;;23.30;8.77;;;;;;;18.82;nan;96485.28;3527205;40;21098;-75
2021/06/19 02:35:35;;;;;;;32.57;8.87;;;;;;;18.85;nan;96485.78;3519541;40;20465;-73
2021/06/19 02:38:04;;;;;;;19.13;8.70;;;;;;;18.79;nan;96494.34;3510695;40;20988;-74
2021/06/19 02:40:32;;;;;;;29.13;8.37;;;;;;;18.68;nan;96505.25;3520810;40;20761;-74
2021/06/19 02:43:02;;;;;;;22.60;8.50;;;;;;;18.55;nan;96503.03;3529502;40;20991;-74
2021/06/19 02:45:30;;;;;;;23.40;8.70;;;;;;;18.38;nan;96513.56;3527590;40;20565;-75
2021/06/19 02:47:59;;;;;;;18.37;8.17;;;;;;;18.41;nan;96512.41;3530065;40;20465;-75
2021/06/19 02:50:29;;;;;;;24.90;9.63;;;;;;;18.44;nan;96521.84;3528378;40;20469;-75
2021/06/19 02:52:58;;;;;;;21.07;9.70;;;;;;;18.35;nan;96536.88;3528283;40;20544;-74
2021/06/19 02:55:28;;;;;;;23.57;8.20;;;;;;;17.92;nan;96533.25;3528479;40;21147;-75
2021/06/19 02:57:57;;;;;;;25.70;10.00;;;;;;;17.81;nan;96539.56;3531863;40;20570;-75
2021/06/19 03:00:26;;;;;;;25.53;8.63;;;;;;;17.67;nan;96543.59;3520901;40;20540;-74
2021/06/19 03:02:54;;;;;;;16.40;8.57;;;;;;;17.95;nan;96552.31;3530330;40;20442;-73
2021/06/19 03:05:25;;;;;;;28.47;9.07;;;;;;;17.82;nan;96548.34;3522075;40;20823;-75
2021/06/19 03:07:56;;;;;;;21.40;8.80;;;;;;;17.95;nan;96552.31;3548967;40;20518;-74
2021/06/19 03:10:30;;;;;;;21.07;8.97;;;;;;;18.19;nan;96545.56;3540361;40;20464;-74
2021/06/19 03:12:58;;;;;;;29.10;9.03;;;;;;;18.25;nan;96547.59;3532458;40;20528;-73
2021/06/19 03:15:28;;;;;;;21.33;10.10;;;;;;;18.45;nan;96550.03;3529442;40;20970;-74
2021/06/19 03:17:56;;;;;;;24.53;10.33;;;;;;;18.36;nan;96536.72;3528258;40;20954;-74
2021/06/19 03:20:24;;;;;;;22.57;8.60;;;;;;;18.50;nan;96559.19;3518616;40;20934;-74
2021/06/19 03:22:54;;;;;;;27.63;8.90;;;;;;;18.39;nan;96546.19;3533114;40;21202;-74
2021/06/19 03:25:25;;;;;;;15.23;8.70;;;;;;;18.56;nan;96563.88;3529368;40;20472;-75
2021/06/19 03:27:54;;;;;;;16.53;9.03;;;;;;;18.60;nan;96564.38;3530375;40;20862;-74
2021/06/19 03:30:23;;;;;;;26.23;10.43;;;;;;;18.65;nan;96555.97;3528776;40;20488;-75
2021/06/19 03:32:53;;;;;;;30.33;9.60;;;;;;;18.74;nan;96560.34;3529423;40;20831;-74
2021/06/19 03:35:23;;;;;;;16.60;8.90;;;;;;;18.83;nan;96563.88;3529578;40;20571;-74
2021/06/19 03:37:52;;;;;;;19.87;10.33;;;;;;;18.78;nan;96559.84;3536782;40;20469;-74
2021/06/19 03:40:23;;;;;;;29.67;9.43;;;;;;;18.77;nan;96565.31;3546111;40;21032;-74
2021/06/19 03:42:55;;;;;;;25.03;9.47;;;;;;;18.76;nan;96568.97;3551378;40;20537;-74
2021/06/19 03:45:40;;;;;;;22.23;9.00;;;;;;;18.75;nan;96570.75;3547893;40;20773;-74
2021/06/19 03:48:28;;;;;;;20.83;8.40;;;;;;;18.69;nan;96576.69;3530350;40;20453;-74
2021/06/19 03:50:56;;;;;;;23.97;9.00;;;;;;;18.48;nan;96592.97;3511371;40;20474;-75
2021/06/19 03:53:24;;;;;;;28.73;8.60;;;;;;;18.61;nan;96597.03;3520826;40;20934;-74
2021/06/19 03:55:51;;;;;;;14.80;8.70;;;;;;;18.65;nan;96593.91;3528116;40;20793;-74
2021/06/19 03:58:20;;;;;;;21.27;9.20;;;;;;;18.82;nan;96596.69;3533912;40;20946;-74
2021/06/19 04:00:48;;;;;;;19.47;7.90;;;;;;;18.86;nan;96606.84;3530308;40;20491;-74
2021/06/19 04:03:15;;;;;;;21.77;8.73;;;;;;;18.93;nan;96605.25;3531156;40;20438;-75
2021/06/19 04:05:45;;;;;;;18.23;8.17;;;;;;;19.00;nan;96608.09;3531044;40;20878;-75
2021/06/19 04:08:13;;;;;;;20.40;8.93;;;;;;;18.87;nan;96610.31;3532542;40;20541;-74
2021/06/19 04:10:41;;;;;;;19.27;9.00;;;;;;;19.03;nan;96615.72;3532665;40;20557;-74
2021/06/19 04:13:08;;;;;;;19.60;8.73;;;;;;;19.09;nan;96611.59;3521895;40;20467;-76
2021/06/19 04:15:36;;;;;;;20.80;8.43;;;;;;;19.14;nan;96615.44;3529661;40;20468;-76
2021/06/19 04:18:05;;;;;;;30.20;9.43;;;;;;;19.13;nan;96597.00;3529969;40;20498;-77
2021/06/19 04:20:32;;;;;;;20.80;10.27;;;;;;;19.22;nan;96609.34;3526363;40;20915;-75
2021/06/19 04:23:02;;;;;;;19.90;9.93;;;;;;;19.20;nan;96618.47;3530216;40;20861;-75
2021/06/19 04:25:29;;;;;;;24.83;9.43;;;;;;;19.14;nan;96626.06;3521578;40;20469;-76
2021/06/19 04:27:58;;;;;;;28.13;9.20;;;;;;;19.22;nan;96624.44;3546559;40;20441;-75
2021/06/19 04:30:30;;;;;;;25.83;9.40;;;;;;;19.35;nan;96638.94;3518004;40;20476;-78
2021/06/19 04:32:58;;;;;;;15.77;8.23;;;;;;;19.50;nan;96631.22;3533552;40;20834;-75
2021/06/19 04:35:27;;;;;;;20.57;9.60;;;;;;;19.55;nan;96631.53;3529675;40;20457;-74
2021/06/19 04:37:56;;;;;;;32.23;9.57;;;;;;;19.41;nan;96640.13;3534122;40;20802;-76
2021/06/19 04:40:31;;;;;;;21.20;10.50;;;;;;;19.33;nan;96637.44;3531467;40;20704;-73
2021/06/19 04:43:11;;;;;;;24.27;9.83;;;;;;;19.21;nan;96644.84;3522572;40;20850;-74
2021/06/19 04:45:40;;;;;;;18.83;8.90;;;;;;;19.08;nan;96639.97;3520767;40;20853;-75
2021/06/19 04:48:09;;;;;;;29.10;11.53;;;;;;;19.47;nan;96646.63;3532794;40;20450;-75
2021/06/19 04:50:38;;;;;;;26.37;10.37;;;;;;;19.58;nan;96648.97;3534833;40;20913;-75
2021/06/19 04:53:06;;;;;;;31.57;9.90;;;;;;;19.44;nan;96652.25;3524317;40;20905;-75
2021/06/19 04:55:36;;;;;;;17.63;8.97;;;;;;;19.51;nan;96651.44;3530019;40;20917;-74
2021/06/19 04:58:04;;;;;;;19.40;9.80;;;;;;;18.96;nan;96647.34;3522588;40;20583;-74
2021/06/19 05:00:33;;;;;;;19.67;8.83;;;;;;;19.52;nan;96657.59;3530094;40;21105;-75
2021/06/19 05:03:02;;;;;;;18.57;9.20;;;;;;;19.41;nan;96658.72;3530253;40;20465;-75
2021/06/19 05:05:30;;;;;;;23.50;8.50;;;;;;;19.93;nan;96653.28;3530945;40;20855;-75
2021/06/19 05:07:58;;;;;;;19.03;10.37;;;;;;;19.81;nan;96659.06;3528820;40;20453;-73
2021/06/19 05:10:26;;;;;;;21.20;9.40;;;;;;;20.24;nan;96673.09;3531897;40;20465;-74
2021/06/19 05:12:55;;;;;;;27.23;10.80;;;;;;;20.31;nan;96664.31;3527653;40;20468;-75
2021/06/19 05:15:25;;;;;;;21.40;9.83;;;;;;;19.88;nan;96666.22;3530118;40;20866;-74
2021/06/19 05:17:54;;;;;;;17.80;8.73;;;;;;;20.04;nan;96660.09;3538732;40;20465;-74
2021/06/19 05:20:26;;;;;;;19.03;10.20;;;;;;;20.26;nan;96658.63;3530149;40;20478;-73
2021/06/19 05:22:54;;;;;;;21.77;8.83;;;;;;;20.17;nan;96649.00;3531141;40;20666;-75
2021/06/19 05:25:23;;;;;;;16.40;7.70;;;;;;;20.33;nan;96664.97;3535340;40;20552;-75
2021/06/19 05:27:50;;;;;;;22.30;9.73;;;;;;;21.14;nan;96670.44;3529223;40;20773;-73
2021/06/19 05:30:20;;;;;;;18.63;9.83;;;;;;;20.94;nan;96668.13;3532244;40;20454;-74
2021/06/19 05:32:48;;;;;;;15.63;9.10;;;;;;;20.76;nan;96669.31;3532928;40;20754;-74
2021/06/19 05:35:16;;;;;;;29.00;10.30;;;;;;;21.16;nan;96662.28;3531272;40;20473;-74
2021/06/19 05:37:45;;;;;;;22.03;10.30;;;;;;;21.38;nan;96663.38;3531767;40;20540;-75
2021/06/19 05:40:14;;;;;;;22.53;10.60;;;;;;;21.00;nan;96669.28;3531531;40;20861;-74
2021/06/19 05:42:43;;;;;;;21.80;9.63;;;;;;;21.63;nan;96666.81;3529682;40;20818;-74
2021/06/19 05:45:12;;;;;;;18.53;8.90;;;;;;;21.33;nan;96671.88;3531658;40;20707;-74
2021/06/19 05:47:41;;;;;;;14.73;8.50;;;;;;;21.14;nan;96667.75;3532021;40;20532;-74
2021/06/19 05:50:10;;;;;;;20.03;8.93;;;;;;;21.00;nan;96674.63;3531597;40;21216;-73
2021/06/19 05:52:38;;;;;;;17.77;8.43;;;;;;;21.55;nan;96670.34;3531095;40;20491;-74
2021/06/19 05:55:08;;;;;;;16.90;8.63;;;;;;;21.97;nan;96676.28;3528507;40;20969;-75
2021/06/19 05:57:36;;;;;;;16.30;8.57;;;;;;;22.19;nan;96678.19;3529487;40;20863;-73
2021/06/19 06:00:05;;;;;;;18.77;9.93;;;;;;;22.41;nan;96667.72;3510418;40;20563;-74
2021/06/19 06:02:33;;;;;;;20.33;8.90;;;;;;;22.74;nan;96664.78;3528942;40;20862;-74
2021/06/19 06:05:02;;;;;;;19.80;9.27;;;;;;;22.90;nan;96669.97;3527288;40;20481;-73
2021/06/19 06:07:31;;;;;;;15.07;7.60;;;;;;;23.32;nan;96668.56;3530001;40;20552;-73
2021/06/19 06:09:58;;;;;;;14.23;7.73;;;;;;;22.91;nan;96660.94;3519974;40;20912;-73
2021/06/19 06:12:26;;;;;;;22.13;8.47;;;;;;;23.49;nan;96654.00;3528264;40;20830;-72
2021/06/19 06:14:54;;;;;;;17.77;9.00;;;;;;;23.56;nan;96659.47;3517765;40;20886;-73
2021/06/19 06:17:22;;;;;;;14.37;8.37;;;;;;;23.42;nan;96655.78;3528631;40;20846;-73
2021/06/19 06:19:50;;;;;;;16.73;8.00;;;;;;;23.65;nan;96662.84;3533864;40;20563;-73
2021/06/19 06:22:20;;;;;;;26.60;9.63;;;;;;;23.91;nan;96664.22;3528419;40;20457;-72
2021/06/19 06:24:47;;;;;;;18.30;8.20;;;;;;;24.13;nan;96657.91;3532755;40;20469;-73
2021/06/19 06:27:17;;;;;;;16.00;7.50;;;;;;;24.16;nan;96654.84;3533127;40;20483;-73
2021/06/19 06:29:45;;;;;;;12.23;7.50;;;;;;;24.23;nan;96660.28;3528815;40;20822;-72
2021/06/19 06:32:13;;;;;;;17.43;8.70;;;;;;;24.27;nan;96666.91;3527449;40;20461;-73
2021/06/19 06:34:41;;;;;;;16.30;8.07;;;;;;;23.82;nan;96664.34;3530076;40;20777;-73
2021/06/19 06:37:09;;;;;;;25.73;7.90;;;;;;;24.36;nan;96665.72;3531868;40;20449;-72
2021/06/19 06:39:38;;;;;;;15.30;6.90;;;;;;;24.67;nan;96665.44;3520604;40;20853;-72
2021/06/19 06:42:07;;;;;;;18.57;6.80;;;;;;;24.18;nan;96666.19;3520172;40;20533;-72
2021/06/19 06:44:35;;;;;;;14.10;6.00;;;;;;;24.51;nan;96673.75;3529732;40;20880;-73
2021/06/19 06:47:04;;;;;;;10.63;5.73;;;;;;;24.96;nan;96671.66;3529832;40;20774;-73
2021/06/19 06:49:32;;;;;;;15.50;6.87;;;;;;;24.70;nan;96669.59;3532868;40;20472;-73
2021/06/19 06:52:00;;;;;;;16.83;8.00;;;;;;;24.50;nan;96677.41;3529316;40;20536;-73
2021/06/19 06:54:28;;;;;;;17.80;8.07;;;;;;;24.59;nan;96676.28;3528308;40;20490;-72
2021/06/19 06:56:58;;;;;;;16.27;7.90;;;;;;;24.77;nan;96669.66;3528580;40;20824;-72
2021/06/19 06:59:26;;;;;;;16.80;7.90;;;;;;;24.46;nan;96676.13;3528143;40;20727;-73
2021/06/19 07:01:53;;;;;;;20.33;7.33;;;;;;;24.87;nan;96664.78;3527128;40;20761;-72
2021/06/19 07:04:22;;;;;;;14.90;6.47;;;;;;;24.33;nan;96659.97;3529267;40;20644;-73
2021/06/19 07:06:50;;;;;;;18.50;7.73;;;;;;;24.71;nan;96667.75;3530220;40;20464;-73
2021/06/19 07:09:18;;;;;;;15.37;7.33;;;;;;;24.78;nan;96663.28;3528766;40;20562;-72
2021/06/19 07:11:46;;;;;;;24.27;7.53;;;;;;;24.44;nan;96651.41;3527186;40;20477;-72
2021/06/19 07:14:16;;;;;;;12.30;6.40;;;;;;;24.28;nan;96642.59;3526311;40;20829;-73
2021/06/19 07:16:44;;;;;;;13.93;6.33;;;;;;;24.56;nan;96657.09;3526949;40;20838;-72
2021/06/19 07:19:12;;;;;;;14.13;6.57;;;;;;;24.96;nan;96658.28;3529423;40;20554;-73
2021/06/19 07:21:40;;;;;;;14.57;6.80;;;;;;;24.94;nan;96657.63;3528574;40;20857;-73
2021/06/19 07:24:10;;;;;;;23.70;6.33;;;;;;;24.64;nan;96651.63;3526066;40;20473;-72
2021/06/19 07:26:38;;;;;;;20.63;5.63;;;;;;;24.74;nan;96659.34;3528939;40;20725;-72
2021/06/19 07:29:06;;;;;;;11.30;5.30;;;;;;;25.38;nan;96658.34;3527238;40;20449;-73
2021/06/19 07:31:36;;;;;;;12.50;6.70;;;;;;;25.43;nan;96662.09;3530998;40;20833;-73
2021/06/19 07:34:04;;;;;;;16.73;6.40;;;;;;;25.30;nan;96651.31;3530967;40;21114;-73
2021/06/19 07:36:32;;;;;;;12.80;5.50;;;;;;;25.41;nan;96640.03;3522654;40;20747;-72
2021/06/19 07:39:00;;;;;;;15.27;5.33;;;;;;;25.37;nan;96636.09;3520594;40;20570;-72
2021/06/19 07:41:29;;;;;;;26.93;15.33;;;;;;;25.70;nan;96631.91;3534203;40;20460;-73
2021/06/19 07:43:57;;;;;;;31.20;15.10;;;;;;;26.27;nan;96635.22;3529502;40;20565;-73
2021/06/19 07:46:25;;;;;;;15.77;6.30;;;;;;;26.38;nan;96627.41;3532413;40;20454;-72
2021/06/19 07:48:58;;;;;;;12.00;5.53;;;;;;;26.96;nan;96620.63;3530705;40;20520;-72
2021/06/19 07:51:26;;;;;;;7.53;4.83;;;;;;;27.33;nan;96619.13;3531110;40;20462;-72
2021/06/19 07:53:54;;;;;;;8.63;5.03;;;;;;;27.16;nan;96607.97;3531190;40;20488;-72
2021/06/19 07:56:22;;;;;;;16.70;5.50;;;;;;;26.35;nan;96617.06;3532370;40;20861;-72
2021/06/19 07:58:50;;;;;;;23.13;10.03;;;;;;;26.60;nan;96620.00;3532957;40;20518;-72
2021/06/19 08:01:18;;;;;;;31.63;23.40;;;;;;;26.71;nan;96620.41;3526352;40;20508;-72
2021/06/19 08:03:46;;;;;;;10.47;6.23;;;;;;;26.66;nan;96622.88;3531199;40;20562;-72
2021/06/19 08:06:16;;;;;;;16.60;7.00;;;;;;;26.83;nan;96622.28;3531628;40;20840;-72
2021/06/19 08:08:43;;;;;;;13.80;5.60;;;;;;;27.18;nan;96616.63;3534099;40;20916;-73
2021/06/19 08:11:11;;;;;;;13.47;6.60;;;;;;;27.29;nan;96617.06;3529684;40;20531;-72
2021/06/19 08:13:40;;;;;;;14.53;7.57;;;;;;;26.68;nan;96616.28;3534209;40;20479;-72
2021/06/19 08:16:10;;;;;;;16.87;6.60;;;;;;;27.19;nan;96601.34;3535988;40;20844;-72
2021/06/19 08:18:38;;;;;;;15.10;6.27;;;;;;;27.30;nan;96618.72;3524806;40;20556;-72
2021/06/19 08:21:06;;;;;;;19.17;7.20;;;;;;;28.44;nan;96617.16;3523060;40;20498;-73
2021/06/19 08:23:35;;;;;;;19.43;7.97;;;;;;;27.64;nan;96612.19;3530247;40;20467;-72
2021/06/19 08:26:03;;;;;;;16.53;7.00;;;;;;;28.10;nan;96613.03;3532717;40;20830;-72
2021/06/19 08:28:33;;;;;;;11.17;5.67;;;;;;;26.85;nan;96616.69;3529894;40;20496;-72
2021/06/19 08:31:02;;;;;;;15.10;7.17;;;;;;;27.47;nan;96608.34;3536157;40;20862;-73
2021/06/19 08:33:30;;;;;;;13.03;6.37;;;;;;;27.61;nan;96605.38;3535406;40;20787;-72
2021/06/19 08:35:58;;;;;;;18.00;6.53;;;;;;;28.07;nan;96602.69;3521647;40;20473;-72
2021/06/19 08:38:26;;;;;;;12.97;5.90;;;;;;;28.40;nan;96602.47;3532599;40;20447;-73
2021/06/19 08:40:55;;;;;;;13.63;7.30;;;;;;;26.95;nan;96594.75;3534623;40;20760;-73
2021/06/19 08:43:25;;;;;;;13.97;6.30;;;;;;;27.58;nan;96600.44;3532671;40;21111;-72
2021/06/19 08:45:53;;;;;;;29.83;14.77;;;;;;;28.15;nan;96605.16;3521666;40;20543;-72
2021/06/19 08:48:21;;;;;;;28.50;19.33;;;;;;;28.37;nan;96605.63;3530159;40;20925;-72
2021/06/19 08:50:50;;;;;;;18.13;6.63;;;;;;;27.63;nan;96618.59;3518925;40;20475;-72
2021/06/19 08:53:20;;;;;;;13.00;5.90;;;;;;;28.58;nan;96599.91;3530509;40;20718;-72
2021/06/19 08:55:57;;;;;;;15.40;6.73;;;;;;;27.86;nan;96617.28;3530717;40;20866;-72
2021/06/19 08:58:25;;;;;;;18.10;7.23;;;;;;;27.29;nan;96617.06;3531046;40;20829;-72
2021/06/19 09:00:53;;;;;;;15.83;6.80;;;;;;;28.94;nan;96616.38;3529780;40;20652;-72
2021/06/19 09:03:22;;;;;;;22.93;6.70;;;;;;;28.88;nan;96611.88;3530121;40;20892;-73
2021/06/19 09:05:52;;;;;;;14.37;6.73;;;;;;;28.68;nan;96614.75;3529599;40;20461;-72
2021/06/19 09:08:22;;;;;;;12.90;6.63;;;;;;;27.42;nan;96615.19;3531240;40;20876;-72
2021/06/19 09:10:51;;;;;;;15.80;6.60;;;;;;;27.52;nan;96608.50;3528608;40;20842;-72
2021/06/19 09:13:22;;;;;;;14.30;6.53;;;;;;;29.02;nan;96615.28;3529532;40;20774;-72
2021/06/19 09:15:54;;;;;;;12.37;6.60;;;;;;;29.82;nan;96609.88;3518068;40;20762;-73
2021/06/19 09:18:24;;;;;;;12.80;6.50;;;;;;;30.70;nan;96605.69;3529450;40;20778;-72
2021/06/19 09:20:55;;;;;;;12.60;6.00;;;;;;;31.53;nan;96609.22;3518653;40;20822;-73
2021/06/19 09:23:30;;;;;;;13.87;6.67;;;;;;;29.09;nan;96599.84;3529490;40;20940;-73
2021/06/19 09:26:15;;;;;;;11.27;5.43;;;;;;;28.55;nan;96584.16;3529499;40;21107;-73
2021/06/19 09:29:09;;;;;;;18.37;6.30;;;;;;;28.83;nan;96587.44;3528935;40;20814;-72
2021/06/19 09:31:40;;;;;;;10.50;6.10;;;;;;;29.58;nan;96577.34;3534822;40;20449;-72
2021/06/19 09:34:22;;;;;;;19.40;5.97;;;;;;;30.14;nan;96580.75;3537486;40;20846;-73
2021/06/19 09:36:52;;;;;;;13.80;6.10;;;;;;;28.74;nan;96566.19;3529151;40;20834;-72
2021/06/19 09:39:23;;;;;;;43.70;29.40;;;;;;;30.06;nan;96570.28;3528597;40;20484;-72
2021/06/19 09:41:52;;;;;;;17.73;5.37;;;;;;;29.21;nan;96567.59;3538294;40;20839;-73
2021/06/19 09:44:38;;;;;;;15.30;6.50;;;;;;;30.04;nan;96564.31;3531441;40;20516;-73
2021/06/19 09:47:06;;;;;;;19.07;5.80;;;;;;;29.69;nan;96566.81;3528035;40;20733;-73
2021/06/19 09:49:36;;;;;;;11.77;6.50;;;;;;;29.44;nan;96564.22;3531529;40;20460;-72
2021/06/19 09:52:04;;;;;;;15.73;5.87;;;;;;;30.35;nan;96554.31;3528600;40;20454;-73
2021/06/19 09:54:40;;;;;;;18.83;5.67;;;;;;;30.29;nan;96549.81;3531135;40;21001;-73
2021/06/19 09:57:11;;;;;;;12.83;5.90;;;;;;;30.21;nan;96547.47;3530444;40;20889;-73
2021/06/19 09:59:41;;;;;;;17.50;5.90;;;;;;;31.21;nan;96541.19;3523557;40;20469;-72
2021/06/19 10:02:21;;;;;;;22.80;6.30;;;;;;;32.16;nan;96541.69;3532974;40;20854;-73
2021/06/19 10:04:51;;;;;;;21.43;6.00;;;;;;;30.76;nan;96539.09;3528820;40;20835;-73
2021/06/19 10:07:19;;;;;;;20.23;6.03;;;;;;;30.68;nan;96517.84;3531031;40;20705;-72
2021/06/19 10:09:49;;;;;;;18.73;6.40;;;;;;;29.74;nan;96521.16;3533408;40;20476;-72
2021/06/19 10:12:20;;;;;;;14.77;6.40;;;;;;;29.99;nan;96517.44;3533955;40;20928;-72
2021/06/19 10:14:50;;;;;;;15.47;6.10;;;;;;;30.36;nan;96507.34;3526856;40;20781;-72
2021/06/19 10:17:22;;;;;;;21.17;6.23;;;;;;;31.49;nan;96504.44;3530217;40;20552;-72
2021/06/19 10:19:53;;;;;;;14.40;5.90;;;;;;;31.40;nan;96497.75;3518300;40;20458;-73
2021/06/19 10:22:25;;;;;;;15.50;6.50;;;;;;;31.04;nan;96494.31;3529640;40;20445;-72
2021/06/19 10:24:53;;;;;;;15.17;5.93;;;;;;;30.07;nan;96501.75;3511988;40;20464;-73
2021/06/19 10:27:23;;;;;;;14.80;5.73;;;;;;;28.86;nan;96503.50;3529028;40;20722;-72
2021/06/19 10:29:53;;;;;;;13.97;6.67;;;;;;;29.45;nan;96495.78;3529978;40;20477;-73
2021/06/19 10:32:43;;;;;;;14.40;5.30;;;;;;;29.76;nan;96487.47;3532720;40;20442;-72
2021/06/19 10:35:15;;;;;;;11.37;5.90;;;;;;;30.09;nan;96486.16;3532690;40;20758;-73
2021/06/19 10:37:44;;;;;;;15.33;6.50;;;;;;;30.23;nan;96475.97;3522993;40;20842;-72
2021/06/19 10:40:19;;;;;;;18.13;4.97;;;;;;;31.06;nan;96478.69;3526197;40;20758;-73
2021/06/19 10:42:48;;;;;;;14.03;5.50;;;;;;;32.11;nan;96474.75;3528814;40;20881;-73
2021/06/19 10:45:23;;;;;;;14.67;5.63;;;;;;;33.15;nan;96483.34;3530997;40;20725;-73
2021/06/19 10:48:00;;;;;;;15.77;5.70;;;;;;;32.94;nan;96489.56;3532642;40;20547;-73
2021/06/19 10:50:29;;;;;;;7.30;5.53;;;;;;;33.82;nan;96470.53;3531633;40;20479;-73
2021/06/19 10:53:05;;;;;;;30.67;5.80;;;;;;;33.90;nan;96477.41;3532832;40;20758;-73
2021/06/19 10:55:35;;;;;;;13.30;5.37;;;;;;;34.33;nan;96476.44;3522350;40;20714;-73
2021/06/19 10:58:17;;;;;;;16.40;5.87;;;;;;;33.12;nan;96473.00;3532123;40;20465;-73
2021/06/19 11:00:50;;;;;;;16.87;5.53;;;;;;;33.58;nan;96468.09;3531155;40;20945;-73
2021/06/19 11:03:19;;;;;;;13.13;5.30;;;;;;;31.47;nan;96468.69;3529532;40;20811;-73
2021/06/19 11:05:55;;;;;;;13.43;5.70;;;;;;;31.99;nan;96455.03;3521244;40;20481;-73
2021/06/19 11:08:23;;;;;;;18.33;5.43;;;;;;;33.58;nan;96451.81;3531868;40;20468;-73
2021/06/19 11:10:56;;;;;;;11.50;5.93;;;;;;;32.79;nan;96442.16;3530567;40;20469;-73
2021/06/19 11:13:44;;;;;;;18.10;5.37;;;;;;;32.33;nan;96446.09;3530037;40;20464;-73
2021/06/19 11:16:53;;;;;;;13.73;5.73;;;;;;;31.28;nan;96444.50;3528069;40;20479;-73
2021/06/19 11:19:48;;;;;;;77.80;46.40;;;;;;;32.90;nan;96443.94;3528839;40;20765;-73
2021/06/19 11:22:33;;;;;;;11.83;6.27;;;;;;;31.78;nan;96440.31;3521461;40;20484;-73
2021/06/19 11:25:21;;;;;;;16.10;6.57;;;;;;;30.67;nan;96443.22;3531494;40;20901;-73
2021/06/19 11:27:51;;;;;;;21.67;6.20;;;;;;;32.12;nan;96438.47;3527835;40;20912;-73
2021/06/19 11:30:48;;;;;;;18.70;6.43;;;;;;;31.64;nan;96433.59;3530911;40;20473;-73
2021/06/19 11:33:47;;;;;;;14.63;6.10;;;;;;;33.85;nan;96437.44;3528478;40;20469;-73
2021/06/19 11:36:33;;;;;;;19.60;5.47;;;;;;;34.85;nan;96434.09;3530175;40;20574;-73
2021/06/19 11:39:08;;;;;;;17.60;5.50;;;;;;;34.67;nan;96428.03;3531116;40;20927;-73
2021/06/19 11:41:42;;;;;;;11.60;5.70;;;;;;;34.82;nan;96430.03;3531835;40;20831;-73
2021/06/19 11:44:12;;;;;;;13.50;5.27;;;;;;;34.88;nan;96430.06;3528739;40;20508;-73
2021/06/19 11:46:48;;;;;;;13.40;5.47;;;;;;;34.84;nan;96427.84;3523113;40;20980;-73
2021/06/19 11:49:17;;;;;;;21.13;5.03;;;;;;;34.23;nan;96424.75;3517819;40;20465;-74
2021/06/19 11:51:53;;;;;;;15.07;5.47;;;;;;;33.04;nan;96421.88;3531016;40;21122;-73
2021/06/19 11:54:21;;;;;;;15.20;6.37;;;;;;;33.67;nan;96403.34;3530868;40;20567;-74
2021/06/19 11:56:49;;;;;;;13.80;6.27;;;;;;;33.36;nan;96413.03;3530592;40;20928;-73